San Angelo, Texas
Current Conditions -  °F | °C
As of 7:40 AM on Friday 24 Oct 2014 (Local Time) from KSJT Reporting Station
Haze Haze  
Wind Chill: 12°   Ceiling: Unl
Heat Index: 12°   Visibility: 1.7mi
Dew Point: 11°   Wind: 5mph
Humidity: 96%   Direction: 210°SSW
Pressure: 30.14"   Gusts: NA
Location:  31.46°N, 100.44°W
Report Text: KSJT 241240Z 21004KT 1 3/4SM BR CLR 12/11 A3014 RMK AO2 T01170111
Loading
Personal Weather Stations






























Interactive Weather Map
Tropical Storm Tracking
New forecast layout! Learn more

10-Day Weather Forecast

Advertisements
Track Severe Weather on mobile